createdAt,value
2019-06-20T00:02:17.260Z,92.30
2019-06-20T00:05:01.444Z,92.30
2019-06-20T00:07:40.065Z,99.90
2019-06-20T00:15:47.130Z,91.60
2019-06-20T00:18:26.371Z,91.80
2019-06-20T00:21:05.296Z,92.10
2019-06-20T00:23:43.670Z,92.00
2019-06-20T00:34:16.483Z,93.70
2019-06-20T00:36:57.680Z,91.40
2019-06-20T00:39:36.375Z,91.20
2019-06-20T00:42:21.297Z,91.00
2019-06-20T00:45:02.501Z,96.70
2019-06-20T00:47:40.962Z,94.40
2019-06-20T00:50:20.001Z,94.00
2019-06-20T00:53:01.198Z,93.90
2019-06-20T00:55:39.791Z,99.90
2019-06-20T00:58:18.327Z,99.90
2019-06-20T01:00:59.294Z,90.50
2019-06-20T01:03:38.540Z,99.90
2019-06-20T01:06:16.846Z,99.90
2019-06-20T01:08:55.365Z,99.90
2019-06-20T01:11:34.234Z,99.90
2019-06-20T01:14:13.495Z,99.90
2019-06-20T01:16:54.428Z,99.90
2019-06-20T02:14:09.658Z,90.80
2019-06-20T03:03:59.062Z,99.90
2019-06-20T03:06:37.522Z,90.60
2019-06-20T03:09:18.144Z,93.50
2019-06-20T03:11:56.966Z,91.80
2019-06-20T03:14:45.320Z,96.40
2019-06-20T03:17:22.828Z,95.50
2019-06-20T03:20:01.964Z,99.90
2019-06-20T03:22:40.870Z,99.90
2019-06-20T03:25:24.381Z,99.90
2019-06-20T03:35:54.384Z,99.90
2019-06-20T03:41:11.588Z,99.90
2019-06-20T03:43:49.928Z,99.90
2019-06-20T03:46:28.345Z,99.90
2019-06-20T03:49:06.817Z,99.90
2019-06-20T03:51:45.970Z,99.90
2019-06-20T03:54:26.453Z,99.90
2019-06-20T04:28:41.003Z,91.90
2019-06-20T04:31:24.087Z,90.70
2019-06-20T04:34:04.695Z,90.50
2019-06-20T04:36:47.965Z,90.70
2019-06-20T04:39:25.200Z,91.20
2019-06-20T04:42:04.555Z,90.30
2019-06-20T04:44:43.732Z,90.20
2019-06-20T04:47:22.241Z,90.30
2019-06-20T04:50:09.009Z,90.20
2019-06-20T04:52:47.689Z,90.50
2019-06-20T04:55:26.886Z,90.40
2019-06-20T04:58:05.627Z,91.90
2019-06-20T05:00:56.734Z,90.20
2019-06-20T05:03:35.266Z,90.20
2019-06-20T05:06:14.699Z,90.10
2019-06-20T05:08:56.820Z,90.70
2019-06-20T05:11:37.268Z,90.10
2019-06-20T05:14:15.862Z,91.00
2019-06-20T05:16:56.654Z,98.40
2019-06-20T05:19:35.812Z,99.70
2019-06-20T05:22:16.652Z,99.90
2019-06-20T05:24:56.915Z,99.90
2019-06-20T05:27:36.203Z,99.90
2019-06-20T05:30:16.212Z,90.20
2019-06-20T05:32:59.001Z,90.30
2019-06-20T05:35:41.414Z,90.50
2019-06-20T05:38:23.642Z,99.90
2019-06-20T05:41:01.959Z,99.90
2019-06-20T05:43:43.630Z,99.90
2019-06-20T05:46:24.003Z,99.40
2019-06-20T05:51:40.429Z,99.90
2019-06-20T05:56:58.177Z,99.90
2019-06-20T05:59:36.645Z,90.30
2019-06-20T06:02:15.792Z,99.90
2019-06-20T06:04:58.488Z,90.40
2019-06-20T06:07:36.941Z,90.40
2019-06-20T06:10:20.477Z,90.20
2019-06-20T06:12:59.725Z,90.40
2019-06-20T06:15:38.427Z,90.10
2019-06-20T06:18:20.496Z,90.40
2019-06-20T06:20:59.303Z,90.60
2019-06-20T06:23:40.135Z,90.40
2019-06-20T06:26:18.809Z,99.90
2019-06-20T06:28:57.437Z,90.40
2019-06-20T06:31:37.599Z,90.80
2019-06-20T06:36:53.299Z,99.90
2019-06-20T06:39:33.875Z,90.50
2019-06-20T06:44:57.427Z,99.90
2019-06-20T06:47:38.274Z,99.90
2019-06-20T06:50:18.064Z,99.90
2019-06-20T06:52:57.015Z,99.90
2019-06-20T06:55:38.367Z,99.90
2019-06-20T06:58:18.475Z,99.90
2019-06-20T07:00:57.442Z,99.90
2019-06-20T07:03:38.769Z,99.90
2019-06-20T07:06:20.018Z,99.90
2019-06-20T07:09:00.233Z,99.80
2019-06-20T07:11:38.710Z,97.40
2019-06-20T07:14:18.964Z,97.90
2019-06-20T07:17:00.564Z,98.60
2019-06-20T07:19:40.099Z,98.80
2019-06-20T07:22:19.642Z,99.60
2019-06-20T07:24:58.512Z,99.80
2019-06-20T07:27:40.946Z,99.80
2019-06-20T07:30:21.108Z,99.80
2019-06-20T07:33:03.495Z,99.90
2019-06-20T07:35:42.102Z,99.90
2019-06-20T07:38:21.388Z,99.90
2019-06-20T07:41:01.686Z,99.90
2019-06-20T07:43:40.614Z,99.90
2019-06-20T07:46:19.201Z,99.90
2019-06-20T07:49:00.607Z,99.90
2019-06-20T07:51:41.271Z,99.90
2019-06-20T07:54:21.556Z,99.90
2019-06-20T07:57:02.430Z,99.90
2019-06-20T07:59:41.770Z,99.90
2019-06-20T08:02:22.742Z,99.90
2019-06-20T08:05:01.901Z,99.90
2019-06-20T08:07:40.665Z,99.90
2019-06-20T08:10:21.217Z,99.90
2019-06-20T08:13:02.356Z,99.90
2019-06-20T08:15:41.094Z,99.90
2019-06-20T08:18:19.693Z,99.90
2019-06-20T08:21:00.586Z,99.90
2019-06-20T08:23:40.024Z,99.90
2019-06-20T08:26:18.913Z,99.90
2019-06-20T08:29:10.235Z,99.90
2019-06-20T08:31:38.921Z,99.90
2019-06-20T08:34:18.146Z,99.90
2019-06-20T08:36:58.838Z,99.90
2019-06-20T08:39:38.135Z,99.90
2019-06-20T08:42:18.653Z,99.90
2019-06-20T08:44:59.477Z,99.90
2019-06-20T08:47:40.982Z,99.90
2019-06-20T08:50:19.901Z,99.90
2019-06-20T08:52:59.708Z,99.90
2019-06-20T08:55:39.393Z,99.90
2019-06-20T08:58:22.068Z,99.90
2019-06-20T09:03:45.009Z,99.90
2019-06-20T09:06:27.438Z,99.90
2019-06-20T09:09:12.219Z,99.90
2019-06-20T09:11:51.251Z,99.90
2019-06-20T09:14:31.357Z,99.90
2019-06-20T09:17:10.436Z,99.90
2019-06-20T09:19:49.627Z,99.90
2019-06-20T09:22:30.481Z,99.90
2019-06-20T09:25:09.362Z,99.90
2019-06-20T09:27:54.107Z,99.90
2019-06-20T09:30:34.241Z,99.90
2019-06-20T09:33:15.279Z,99.90
2019-06-20T09:35:55.471Z,99.90
2019-06-20T09:38:34.043Z,99.90
2019-06-20T09:41:15.525Z,99.90
2019-06-20T09:43:58.486Z,99.90
2019-06-20T09:46:37.731Z,99.90
2019-06-20T09:49:17.747Z,99.90
2019-06-20T09:51:56.953Z,99.90
2019-06-20T09:54:35.460Z,99.90
2019-06-20T09:57:14.073Z,99.90
2019-06-20T10:00:05.829Z,99.90
2019-06-20T10:02:40.638Z,99.90
2019-06-20T10:05:19.650Z,99.90
2019-06-20T10:07:58.561Z,99.90
2019-06-20T10:10:37.679Z,99.90
2019-06-20T10:13:16.356Z,99.90
2019-06-20T10:15:55.629Z,99.90
2019-06-20T10:18:35.654Z,99.90
2019-06-20T10:21:15.027Z,99.90
2019-06-20T10:23:54.517Z,99.90
2019-06-20T10:26:33.099Z,99.90
2019-06-20T10:29:13.794Z,99.90
2019-06-20T10:31:54.264Z,99.90
2019-06-20T10:34:33.955Z,99.90
2019-06-20T10:37:12.592Z,99.90
2019-06-20T10:39:51.996Z,99.90
2019-06-20T10:42:30.899Z,99.90
2019-06-20T10:45:10.422Z,99.90
2019-06-20T10:47:50.783Z,99.90
2019-06-20T10:50:29.359Z,99.90
2019-06-20T10:53:14.036Z,99.90
2019-06-20T10:55:52.658Z,99.90
2019-06-20T10:58:31.132Z,99.90
2019-06-20T11:01:14.428Z,99.90
2019-06-20T11:03:52.915Z,99.90
2019-06-20T11:06:32.096Z,99.90
2019-06-20T11:09:14.046Z,99.90
2019-06-20T11:11:53.357Z,99.90
2019-06-20T11:14:33.471Z,99.90
2019-06-20T11:17:12.158Z,99.90
2019-06-20T11:19:52.222Z,99.90
2019-06-20T11:22:33.064Z,99.90
2019-06-20T11:25:11.861Z,99.90
2019-06-20T11:27:53.770Z,99.90
2019-06-20T11:30:44.898Z,99.90
2019-06-20T11:33:12.423Z,99.90
2019-06-20T11:35:53.759Z,99.90
2019-06-20T11:38:33.858Z,99.90
2019-06-20T11:41:12.582Z,99.90
2019-06-20T11:43:55.685Z,99.90
2019-06-20T11:46:35.282Z,99.90
2019-06-20T11:49:14.561Z,99.90
2019-06-20T11:51:53.036Z,99.90
2019-06-20T11:54:31.880Z,99.90
2019-06-20T11:57:12.066Z,99.90
2019-06-20T11:59:50.725Z,99.90
2019-06-20T12:02:29.419Z,99.90
2019-06-20T12:05:08.585Z,99.90
2019-06-20T12:07:49.801Z,99.90
2019-06-20T12:10:29.439Z,99.90
2019-06-20T12:13:07.943Z,99.90
2019-06-20T12:15:50.251Z,99.90
2019-06-20T12:18:29.193Z,99.90
2019-06-20T12:21:07.827Z,99.90
2019-06-20T12:23:49.456Z,99.90
2019-06-20T12:26:33.328Z,99.90
2019-06-20T12:29:14.043Z,99.90
2019-06-20T12:31:52.860Z,99.90
2019-06-20T12:34:31.508Z,99.90
2019-06-20T12:37:10.047Z,99.90
2019-06-20T12:39:49.259Z,99.90
2019-06-20T12:42:29.509Z,99.90
2019-06-20T12:45:08.405Z,99.90
2019-06-20T12:47:48.378Z,99.90
2019-06-20T12:50:27.901Z,99.90
2019-06-20T12:53:06.569Z,99.90
2019-06-20T12:55:47.484Z,99.90
2019-06-20T12:58:26.107Z,99.90
2019-06-20T13:01:07.268Z,99.90
2019-06-20T13:03:48.083Z,99.90
2019-06-20T13:06:27.753Z,99.90
2019-06-20T13:09:07.057Z,99.90
2019-06-20T13:11:47.019Z,99.90
2019-06-20T13:14:27.195Z,99.90
2019-06-20T13:17:07.517Z,99.90
2019-06-20T13:19:46.495Z,99.90
2019-06-20T13:22:27.496Z,99.90
2019-06-20T13:25:06.477Z,99.90
2019-06-20T13:27:45.727Z,99.90
2019-06-20T13:30:25.247Z,99.90
2019-06-20T13:33:04.444Z,99.90
2019-06-20T13:35:43.782Z,99.90
2019-06-20T13:38:22.678Z,99.90
2019-06-20T13:41:04.993Z,99.90
2019-06-20T13:43:44.132Z,99.90
2019-06-20T13:46:22.869Z,99.90
2019-06-20T13:51:39.965Z,99.90
2019-06-20T13:54:18.538Z,99.90
2019-06-20T13:56:58.325Z,99.90
2019-06-20T13:59:43.394Z,99.90
2019-06-20T14:02:23.610Z,99.90
2019-06-20T14:05:04.470Z,99.90
2019-06-20T14:07:47.054Z,99.90
2019-06-20T14:10:23.454Z,99.90
2019-06-20T14:13:02.050Z,99.90
2019-06-20T14:15:42.652Z,99.90
2019-06-20T14:18:21.035Z,99.90
2019-06-20T14:20:59.589Z,99.90
2019-06-20T14:23:41.036Z,97.30
2019-06-20T14:26:22.101Z,97.50
2019-06-20T14:29:01.244Z,97.60
2019-06-20T14:34:19.970Z,97.20
2019-06-20T14:36:58.902Z,97.50
2019-06-20T14:39:38.804Z,97.90
2019-06-20T14:42:17.550Z,97.70
2019-06-20T14:44:56.179Z,97.70
2019-06-20T14:47:37.456Z,98.00
2019-06-20T14:50:16.435Z,98.20
2019-06-20T14:52:54.961Z,98.30
2019-06-20T14:55:34.018Z,98.30
2019-06-20T14:58:14.402Z,98.30
2019-06-20T15:00:55.018Z,98.30
2019-06-20T15:03:35.166Z,98.50
2019-06-20T15:06:15.171Z,98.60
2019-06-20T15:09:04.862Z,98.80
2019-06-20T15:11:37.895Z,98.80
2019-06-20T15:14:16.341Z,98.50
2019-06-20T15:16:55.379Z,98.80
2019-06-20T15:19:35.145Z,99.00
2019-06-20T15:22:13.952Z,99.90
2019-06-20T15:24:53.545Z,98.90
2019-06-20T15:27:32.236Z,99.20
2019-06-20T15:30:12.939Z,98.90
2019-06-20T15:33:04.084Z,98.90
2019-06-20T15:35:31.296Z,99.30
2019-06-20T15:38:12.955Z,99.30
2019-06-20T15:40:53.073Z,99.20
2019-06-20T15:43:31.882Z,99.30
2019-06-20T15:46:11.897Z,99.40
2019-06-20T15:48:50.643Z,99.50
2019-06-20T15:51:29.163Z,99.70
2019-06-20T15:54:08.220Z,99.90
2019-06-20T15:56:48.563Z,99.90
2019-06-20T15:59:30.252Z,99.90
2019-06-20T16:02:08.975Z,99.60
2019-06-20T16:04:48.436Z,99.50
2019-06-20T16:07:28.424Z,99.50
2019-06-20T16:10:07.509Z,99.70
2019-06-20T16:12:46.199Z,99.40
2019-06-20T16:15:32.729Z,99.70
2019-06-20T16:18:11.258Z,99.60
2019-06-20T16:20:50.134Z,99.40
2019-06-20T16:23:28.741Z,99.30
2019-06-20T16:26:08.032Z,99.20
2019-06-20T16:28:46.596Z,99.20
2019-06-20T16:31:27.134Z,99.40
2019-06-20T16:34:05.030Z,99.30
2019-06-20T16:36:44.512Z,99.40
2019-06-20T16:39:23.076Z,99.10
2019-06-20T16:42:01.739Z,99.50
2019-06-20T16:44:40.292Z,99.40
2019-06-20T16:47:19.507Z,98.90
2019-06-20T16:49:59.696Z,98.90
2019-06-20T16:52:40.404Z,99.00
2019-06-20T16:55:21.428Z,98.70
2019-06-20T16:58:00.558Z,98.70
2019-06-20T17:00:39.290Z,99.10
2019-06-20T17:03:17.911Z,99.90
2019-06-20T17:05:59.605Z,98.80
2019-06-20T17:08:38.414Z,98.40
2019-06-20T17:11:17.402Z,99.90
2019-06-20T17:13:57.984Z,99.90
2019-06-20T17:16:36.645Z,99.90
2019-06-20T17:19:15.743Z,99.90
2019-06-20T17:21:54.230Z,99.90
2019-06-20T17:24:33.161Z,98.40
2019-06-20T17:27:12.023Z,98.40
2019-06-20T17:29:52.569Z,98.20
2019-06-20T17:32:31.078Z,98.00
2019-06-20T17:35:11.449Z,98.00
2019-06-20T17:37:49.991Z,99.90
2019-06-20T17:40:29.387Z,99.90
2019-06-20T17:43:10.343Z,99.90
2019-06-20T17:45:48.986Z,97.00
2019-06-20T17:48:29.039Z,96.80
2019-06-20T17:51:08.577Z,96.80
2019-06-20T17:53:49.557Z,96.70
2019-06-20T17:56:26.637Z,96.70
2019-06-20T17:59:05.290Z,96.30
2019-06-20T18:01:44.493Z,96.50
2019-06-20T18:04:26.677Z,96.40
2019-06-20T18:07:03.623Z,96.30
2019-06-20T18:09:42.278Z,95.90
2019-06-20T18:12:20.915Z,95.40
2019-06-20T18:14:59.381Z,95.60
2019-06-20T18:17:38.831Z,95.20
2019-06-20T18:20:20.698Z,95.10
2019-06-20T18:22:59.317Z,95.30
2019-06-20T18:25:40.984Z,95.20
2019-06-20T18:28:20.104Z,94.90
2019-06-20T18:30:58.783Z,94.90
2019-06-20T18:33:37.387Z,94.60
2019-06-20T18:36:17.269Z,94.90
2019-06-20T18:38:56.663Z,94.60
2019-06-20T18:41:35.063Z,94.90
2019-06-20T18:44:13.669Z,94.60
2019-06-20T18:46:53.425Z,94.80
2019-06-20T18:49:34.518Z,94.60
2019-06-20T18:52:14.495Z,94.60
2019-06-20T18:54:53.063Z,94.50
2019-06-20T18:57:32.875Z,94.30
2019-06-20T19:00:13.685Z,94.20
2019-06-20T19:02:52.223Z,94.30
2019-06-20T19:05:30.998Z,94.40
2019-06-20T19:08:11.051Z,94.50
2019-06-20T19:10:49.821Z,94.20
2019-06-20T19:13:31.878Z,94.50
2019-06-20T19:16:10.693Z,94.20
2019-06-20T19:18:52.395Z,94.30
2019-06-20T19:21:31.291Z,94.40
2019-06-20T19:24:11.351Z,94.00
2019-06-20T19:26:50.916Z,96.50
2019-06-20T19:29:29.507Z,94.20
2019-06-20T19:32:08.202Z,95.30
2019-06-20T19:35:00.995Z,93.20
2019-06-20T19:37:27.118Z,93.20
2019-06-20T19:40:05.905Z,92.90
2019-06-20T19:42:46.198Z,93.60
2019-06-20T19:45:24.836Z,99.90
2019-06-20T19:48:05.793Z,99.90
2019-06-20T19:50:44.943Z,99.90
2019-06-20T19:53:23.674Z,99.90
2019-06-20T19:56:02.961Z,99.90
2019-06-20T19:58:41.537Z,96.20
2019-06-20T20:01:22.660Z,99.90
2019-06-20T20:04:03.163Z,99.90
2019-06-20T20:06:41.859Z,92.50
2019-06-20T20:09:22.496Z,92.30
2019-06-20T20:14:38.757Z,92.30
2019-06-20T20:17:17.451Z,92.70
2019-06-20T20:19:56.207Z,92.00
2019-06-20T20:22:34.775Z,92.00
2019-06-20T20:25:16.151Z,91.80
2019-06-20T20:27:54.526Z,98.40
2019-06-20T20:30:34.861Z,92.00
2019-06-20T20:33:16.753Z,93.50
2019-06-20T20:35:56.078Z,93.60
2019-06-20T20:38:34.473Z,94.30
2019-06-20T20:41:13.138Z,91.80
2019-06-20T20:43:51.712Z,94.70
2019-06-20T20:46:33.418Z,92.30
2019-06-20T20:49:13.960Z,97.90
2019-06-20T20:51:54.543Z,92.50
2019-06-20T20:54:33.090Z,92.50
2019-06-20T20:57:14.006Z,92.20
2019-06-20T20:59:52.498Z,92.40
2019-06-20T21:02:33.021Z,96.60
2019-06-20T21:05:13.506Z,92.30
2019-06-20T21:07:52.265Z,91.90
2019-06-20T21:10:30.945Z,92.20
2019-06-20T21:13:10.089Z,92.40
2019-06-20T21:15:48.706Z,92.70
2019-06-20T21:21:03.103Z,99.90
2019-06-20T21:23:43.624Z,99.90
2019-06-20T21:29:00.482Z,92.30
2019-06-20T21:31:39.317Z,92.70
2019-06-20T21:34:19.278Z,92.70
2019-06-20T21:37:00.805Z,92.10
2019-06-20T21:39:39.629Z,92.20
2019-06-20T21:42:18.092Z,92.30
2019-06-20T21:44:59.999Z,92.40
2019-06-20T21:47:40.245Z,92.20
2019-06-20T21:50:20.358Z,92.20
2019-06-20T21:52:59.107Z,92.40
2019-06-20T21:55:38.862Z,92.40
2019-06-20T21:58:20.124Z,92.20
2019-06-20T22:01:01.797Z,92.40
2019-06-20T22:03:40.339Z,92.00
2019-06-20T22:06:23.976Z,92.00
2019-06-20T22:09:01.000Z,92.00
2019-06-20T22:11:41.022Z,92.10
2019-06-20T22:14:19.768Z,92.10
2019-06-20T22:19:36.668Z,91.60
2019-06-20T22:22:15.103Z,91.80
2019-06-20T22:24:53.644Z,91.70
2019-06-20T22:27:33.567Z,91.70
2019-06-20T22:30:14.155Z,91.90
2019-06-20T22:32:53.280Z,91.70
2019-06-20T22:35:32.366Z,91.50
2019-06-20T22:38:12.582Z,92.00
2019-06-20T22:40:52.254Z,91.90
2019-06-20T22:43:30.990Z,92.30
2019-06-20T22:46:09.434Z,92.30
2019-06-20T22:48:48.128Z,92.10
2019-06-20T22:51:28.685Z,92.10
2019-06-20T22:54:07.289Z,91.90
2019-06-20T22:56:45.941Z,92.00
2019-06-20T22:59:26.968Z,92.00
2019-06-20T23:02:06.344Z,91.90
2019-06-20T23:04:47.604Z,91.80
2019-06-20T23:07:25.960Z,91.60
2019-06-20T23:10:10.290Z,91.90
2019-06-20T23:12:44.904Z,91.50
2019-06-20T23:15:23.775Z,91.60
2019-06-20T23:18:03.496Z,91.00
2019-06-20T23:21:00.417Z,90.80
2019-06-20T23:23:24.982Z,90.10
2019-06-20T23:26:04.753Z,90.30
2019-06-20T23:28:43.081Z,90.00
2019-06-20T23:31:21.877Z,89.70
2019-06-20T23:34:00.932Z,90.00
2019-06-20T23:36:41.307Z,90.10
2019-06-20T23:39:21.863Z,89.60
2019-06-20T23:42:00.168Z,89.50
2019-06-20T23:44:41.166Z,90.00
2019-06-20T23:47:21.682Z,89.50
2019-06-20T23:50:00.161Z,99.90
2019-06-20T23:52:41.808Z,90.00
2019-06-20T23:55:21.088Z,90.70
2019-06-20T23:58:01.200Z,89.10
